Time;durP1;ratioP1;P1;durP2;ratioP2;P2;SDS_P1;SDS_P2;PMS_P1;PMS_P2;Temp;Humidity;BMP_temperature;BMP_pressure;BME280_temperature;BME280_humidity;BME280_pressure;Samples;Min_cycle;Max_cycle;Signal;HPM_P1;HPM_P2
2023/01/06 00:00:37;;;;;;;3.60;2.17;;;;;;;8.71;69.60;94972.84;5124345;27;20201;-80
2023/01/06 00:03:04;;;;;;;5.18;2.28;;;;;;;8.70;69.23;94982.84;5123349;27;20277;-82
2023/01/06 00:05:31;;;;;;;7.90;1.58;;;;;;;8.58;70.27;94995.28;5123687;27;20236;-81
2023/01/06 00:07:58;;;;;;;4.32;2.00;;;;;;;8.63;69.57;94998.66;5117944;27;20224;-80
2023/01/06 00:10:27;;;;;;;3.53;1.73;;;;;;;8.55;69.82;94994.78;5129523;27;20200;-79
2023/01/06 00:12:53;;;;;;;4.10;1.80;;;;;;;8.41;70.48;95007.53;5118541;28;20605;-76
2023/01/06 00:15:21;;;;;;;2.67;1.63;;;;;;;8.32;71.09;95005.88;5129495;28;20236;-79
2023/01/06 00:17:47;;;;;;;3.22;1.70;;;;;;;8.25;71.50;95014.34;5129865;28;20257;-82
2023/01/06 00:20:14;;;;;;;2.10;1.67;;;;;;;8.19;71.89;95020.97;5128703;28;20506;-82
2023/01/06 00:22:46;;;;;;;4.20;2.47;;;;;;;8.21;71.90;95024.13;5118438;28;20204;-80
2023/01/06 00:25:13;;;;;;;1.73;1.42;;;;;;;8.31;71.75;95029.34;5129126;28;20208;-82
2023/01/06 00:27:41;;;;;;;3.95;2.25;;;;;;;8.12;72.16;95031.34;5118384;28;20203;-81
2023/01/06 00:30:09;;;;;;;6.80;3.75;;;;;;;8.05;72.67;95041.75;5113192;28;20672;-82
2023/01/06 00:32:36;;;;;;;4.25;1.67;;;;;;;7.99;73.10;95059.94;5118917;28;20208;-82
2023/01/06 00:35:03;;;;;;;1.33;0.98;;;;;;;8.02;73.00;95053.16;5115453;28;20257;-83
2023/01/06 00:37:30;;;;;;;3.65;1.67;;;;;;;7.96;73.49;95054.34;5117681;28;20209;-84
2023/01/06 00:39:56;;;;;;;6.75;2.53;;;;;;;7.90;73.79;95044.75;5112319;28;20276;-83
2023/01/06 00:42:24;;;;;;;3.10;1.70;;;;;;;7.88;73.80;95041.56;5117979;28;20198;-84
2023/01/06 00:44:52;;;;;;;4.15;2.33;;;;;;;7.94;74.00;95032.25;5122324;28;20300;-84
2023/01/06 00:47:20;;;;;;;5.03;2.30;;;;;;;8.09;73.90;95042.75;5119405;28;20213;-80
2023/01/06 00:49:46;;;;;;;4.95;2.47;;;;;;;8.12;74.24;95036.75;5129668;28;20203;-81
2023/01/06 00:52:13;;;;;;;2.63;1.55;;;;;;;8.35;74.18;95051.13;5130148;28;20200;-80
2023/01/06 00:54:40;;;;;;;2.10;1.25;;;;;;;8.49;73.88;95052.69;5110874;28;20266;-81
2023/01/06 00:57:07;;;;;;;2.67;1.67;;;;;;;8.59;73.71;95045.50;5121960;28;20201;-83
2023/01/06 00:59:34;;;;;;;3.50;1.63;;;;;;;8.70;73.67;95046.84;5116152;28;20193;-82
2023/01/06 01:02:03;;;;;;;2.90;1.45;;;;;;;8.73;73.41;95040.84;5117289;28;20206;-83
2023/01/06 01:04:30;;;;;;;2.00;1.27;;;;;;;8.77;73.55;95041.81;5133387;27;20200;-80
2023/01/06 01:06:57;;;;;;;1.15;1.05;;;;;;;8.79;73.65;95047.72;5120741;27;20237;-83
2023/01/06 01:09:26;;;;;;;3.20;1.52;;;;;;;8.79;73.46;95050.41;5126972;27;20205;-83
2023/01/06 01:12:11;;;;;;;3.65;1.83;;;;;;;8.79;73.72;95043.13;5126926;27;20201;-82
2023/01/06 01:14:45;;;;;;;3.83;2.03;;;;;;;8.77;73.82;95041.81;5122837;27;20332;-82
2023/01/06 01:17:16;;;;;;;2.30;1.85;;;;;;;8.82;73.85;95049.81;5120181;27;20575;-79
2023/01/06 01:19:43;;;;;;;3.78;2.13;;;;;;;8.80;73.80;95041.22;5122243;27;20193;-82
2023/01/06 01:22:10;;;;;;;2.83;1.15;;;;;;;8.71;74.08;95040.34;5126621;27;20262;-79
2023/01/06 01:24:37;;;;;;;2.05;1.85;;;;;;;8.80;74.12;95046.63;5124511;27;20216;-82
2023/01/06 01:27:04;;;;;;;3.38;1.88;;;;;;;8.76;74.12;95051.03;5133886;27;20228;-80
2023/01/06 01:29:30;;;;;;;1.45;1.30;;;;;;;8.75;74.18;95052.13;5121541;27;20205;-80
2023/01/06 01:31:57;;;;;;;2.05;1.25;;;;;;;8.73;74.34;95041.66;5126857;27;20247;-81
2023/01/06 01:34:26;;;;;;;1.95;1.08;;;;;;;8.79;74.13;95045.81;5124961;27;20647;-82
2023/01/06 01:36:54;;;;;;;2.20;1.60;;;;;;;8.68;74.13;95033.66;5119563;27;20269;-82
2023/01/06 01:39:23;;;;;;;2.35;1.75;;;;;;;8.73;74.64;95024.66;5120514;27;20229;-81
2023/01/06 01:41:50;;;;;;;2.33;1.40;;;;;;;8.77;73.76;95020.22;5132860;27;20258;-82
2023/01/06 01:45:03;;;;;;;2.50;1.40;;;;;;;8.70;74.27;95014.44;5120115;27;20738;-83
2023/01/06 01:47:44;;;;;;;1.70;0.98;;;;;;;8.69;74.16;95008.25;5125353;27;20265;-81
2023/01/06 01:50:20;;;;;;;1.10;1.00;;;;;;;8.69;74.02;95008.25;5120395;27;20706;-82
2023/01/06 01:52:50;;;;;;;2.00;1.30;;;;;;;8.74;73.76;94996.53;5132646;27;20528;-82
2023/01/06 01:55:19;;;;;;;3.13;1.55;;;;;;;8.71;73.40;94973.63;5133116;27;20197;-83
2023/01/06 01:57:52;;;;;;;2.83;1.35;;;;;;;8.75;73.39;94968.41;5124061;27;20202;-81
2023/01/06 02:00:19;;;;;;;3.40;1.30;;;;;;;8.79;72.65;94980.19;5124286;27;20197;-82
2023/01/06 02:02:46;;;;;;;2.22;1.25;;;;;;;8.86;72.37;94981.38;5133082;27;20229;-81
2023/01/06 02:05:18;;;;;;;5.93;1.77;;;;;;;8.91;71.84;94975.03;5132337;27;20205;-79
2023/01/06 02:07:46;;;;;;;2.17;1.50;;;;;;;8.92;71.99;94979.31;5126944;27;20197;-80
2023/01/06 02:10:14;;;;;;;4.68;1.67;;;;;;;8.91;71.55;94985.84;5125173;27;20197;-84
2023/01/06 02:12:42;;;;;;;1.48;1.20;;;;;;;8.93;71.49;94990.94;5118898;27;20724;-84
2023/01/06 02:15:20;;;;;;;1.80;1.42;;;;;;;8.87;71.61;95003.78;5118489;27;20237;-79
2023/01/06 02:18:07;;;;;;;1.15;1.00;;;;;;;8.89;71.23;95012.34;5123842;27;20810;-79
2023/01/06 02:20:45;;;;;;;2.72;1.35;;;;;;;8.90;70.84;95020.16;5124778;27;20733;-80
2023/01/06 02:23:46;;;;;;;2.75;1.17;;;;;;;8.99;70.58;95022.94;5125979;27;20211;-80
2023/01/06 02:26:46;;;;;;;3.58;1.40;;;;;;;9.02;70.34;95024.22;5121464;27;20228;-82
2023/01/06 02:30:09;;;;;;;1.27;0.70;;;;;;;8.99;70.70;95022.94;5121147;27;20556;-82
2023/01/06 02:33:03;;;;;;;0.98;0.60;;;;;;;8.94;70.34;95031.16;5121848;27;20378;-77
2023/01/06 02:35:57;;;;;;;1.55;0.82;;;;;;;9.02;70.13;95033.09;5124532;27;20684;-77
2023/01/06 02:38:37;;;;;;;0.80;0.80;;;;;;;8.93;70.20;95016.03;5126040;27;20218;-81
2023/01/06 02:41:13;;;;;;;1.63;1.23;;;;;;;8.78;70.71;95024.50;5111376;28;20186;-82
2023/01/06 02:43:49;;;;;;;1.40;0.90;;;;;;;8.70;71.11;95030.66;5111573;28;20201;-80
2023/01/06 02:46:30;;;;;;;2.40;1.35;;;;;;;8.62;71.57;95017.88;5124397;27;20224;-80
2023/01/06 02:49:11;;;;;;;2.20;1.40;;;;;;;8.52;71.61;95014.31;5122757;27;20659;-83
2023/01/06 02:51:50;;;;;;;2.08;1.13;;;;;;;8.47;72.22;95011.72;5118394;27;20193;-83
2023/01/06 02:54:27;;;;;;;2.78;1.42;;;;;;;8.53;72.01;95005.09;5117782;27;20195;-81
2023/01/06 02:57:07;;;;;;;1.35;1.02;;;;;;;8.56;71.32;94995.59;5121202;27;20198;-83
2023/01/06 02:59:41;;;;;;;2.47;1.50;;;;;;;8.59;71.00;94996.91;5125451;27;20281;-83
2023/01/06 03:02:10;;;;;;;2.35;1.02;;;;;;;8.61;71.30;95000.88;5124786;27;20277;-82
2023/01/06 03:04:43;;;;;;;2.08;1.17;;;;;;;8.60;71.13;95009.28;5118070;27;20308;-81
2023/01/06 03:07:11;;;;;;;1.73;1.63;;;;;;;8.60;70.92;95003.91;5117991;27;20336;-83
2023/01/06 03:09:38;;;;;;;5.50;2.17;;;;;;;8.66;70.69;94992.66;5123867;27;20205;-80
2023/01/06 03:12:12;;;;;;;2.60;1.40;;;;;;;8.63;71.08;94987.06;5111860;27;20262;-81
2023/01/06 03:14:43;;;;;;;2.53;1.38;;;;;;;8.61;70.68;94978.50;5122399;27;20293;-80
2023/01/06 03:17:11;;;;;;;2.78;1.58;;;;;;;8.58;70.87;94984.50;5127662;27;20189;-82
2023/01/06 03:19:39;;;;;;;1.88;1.23;;;;;;;8.54;70.57;94985.09;5121601;27;20201;-80
2023/01/06 03:22:08;;;;;;;2.72;1.05;;;;;;;8.56;70.47;94987.50;5127699;27;20839;-79
2023/01/06 03:24:35;;;;;;;1.60;1.50;;;;;;;8.54;70.17;94984.31;5131216;27;20250;-85
2023/01/06 03:27:04;;;;;;;2.65;0.90;;;;;;;8.49;70.30;94998.69;5116511;27;20635;-83
2023/01/06 03:29:30;;;;;;;1.45;1.15;;;;;;;8.60;69.56;94993.09;5119949;27;20629;-79
2023/01/06 03:32:02;;;;;;;0.98;0.95;;;;;;;8.64;69.27;94970.56;5124419;27;20638;-80
2023/01/06 03:34:47;;;;;;;4.32;1.20;;;;;;;8.50;69.98;94992.22;5122922;27;20193;-82
2023/01/06 03:37:25;;;;;;;1.52;0.90;;;;;;;8.45;70.51;94991.53;5099679;27;20232;-83
2023/01/06 03:40:01;;;;;;;1.80;1.13;;;;;;;8.34;70.92;94996.34;5117106;27;20185;-81
2023/01/06 03:45:41;;;;;;;2.70;1.38;;;;;;;8.41;70.24;95007.53;5118260;27;20193;-81
2023/01/06 03:48:16;;;;;;;0.93;0.82;;;;;;;8.34;70.46;95007.16;5130381;27;20227;-82
2023/01/06 03:50:48;;;;;;;4.35;1.25;;;;;;;8.22;71.07;95009.53;5130941;27;20184;-82
2023/01/06 03:53:25;;;;;;;4.68;1.48;;;;;;;8.18;70.80;95024.75;5130342;27;20197;-84
2023/01/06 03:55:58;;;;;;;2.05;0.82;;;;;;;8.24;70.90;95023.53;5116863;27;20569;-80
2023/01/06 03:58:28;;;;;;;3.30;1.23;;;;;;;8.26;70.79;95042.94;5112070;27;20190;-82
2023/01/06 04:00:55;;;;;;;0.65;0.47;;;;;;;8.21;70.96;95053.81;5124163;27;21040;-83
2023/01/06 04:03:25;;;;;;;0.80;0.68;;;;;;;8.15;70.96;95057.75;5120194;27;20205;-80
2023/01/06 04:05:53;;;;;;;9.30;1.80;;;;;;;8.11;70.81;95067.53;5126970;27;20312;-83
2023/01/06 04:08:20;;;;;;;1.55;0.88;;;;;;;8.09;70.58;95069.72;5121041;27;20205;-83
2023/01/06 04:10:47;;;;;;;1.05;0.90;;;;;;;8.17;70.36;95044.75;5116250;27;20199;-81
2023/01/06 04:13:13;;;;;;;4.38;1.90;;;;;;;8.19;70.36;95074.94;5118757;27;20258;-81
2023/01/06 04:15:39;;;;;;;2.92;1.55;;;;;;;8.09;70.45;95069.72;5123423;28;20237;-81
2023/01/06 04:18:06;;;;;;;1.90;0.90;;;;;;;8.15;70.39;95079.31;5121711;28;20200;-84
2023/01/06 04:20:33;;;;;;;1.33;1.15;;;;;;;8.07;70.40;95071.91;5116587;28;20201;-81
2023/01/06 04:23:01;;;;;;;2.50;1.25;;;;;;;8.03;70.73;95065.53;5118852;28;20271;-83
2023/01/06 04:25:28;;;;;;;1.23;1.08;;;;;;;7.99;70.69;95049.16;5123550;28;20792;-84
2023/01/06 04:27:55;;;;;;;2.95;0.80;;;;;;;7.89;71.21;95038.56;5122189;28;20711;-83
2023/01/06 04:30:22;;;;;;;1.60;1.30;;;;;;;7.80;71.32;95035.75;5116195;28;20292;-83
2023/01/06 04:32:49;;;;;;;0.93;0.73;;;;;;;7.82;70.95;95038.16;5117626;28;20205;-78
2023/01/06 04:35:16;;;;;;;2.38;1.20;;;;;;;7.89;70.83;95059.34;5123654;28;20213;-82
2023/01/06 04:37:42;;;;;;;0.95;0.85;;;;;;;7.96;70.27;95078.63;5123512;27;20735;-83
2023/01/06 04:40:11;;;;;;;2.47;1.25;;;;;;;7.96;70.44;95092.09;5120400;27;20835;-78
2023/01/06 04:45:23;;;;;;;2.80;1.40;;;;;;;7.99;70.73;95094.22;5123123;27;20208;-81
2023/01/06 04:47:49;;;;;;;1.35;0.80;;;;;;;8.06;70.81;95097.31;5134291;27;20234;-83
2023/01/06 04:50:16;;;;;;;1.27;0.82;;;;;;;7.96;70.50;95108.28;5133505;27;20226;-83
2023/01/06 04:52:43;;;;;;;2.65;1.10;;;;;;;7.89;70.97;95113.28;5130591;27;20659;-81
2023/01/06 04:55:11;;;;;;;0.65;0.65;;;;;;;7.84;70.87;95117.69;5122970;27;20341;-82
2023/01/06 04:57:38;;;;;;;2.88;1.20;;;;;;;7.83;71.26;95126.88;5120521;27;20201;-83
2023/01/06 05:00:06;;;;;;;4.82;1.35;;;;;;;7.88;71.10;95122.47;5123395;27;20209;-79
2023/01/06 05:02:33;;;;;;;1.48;1.05;;;;;;;7.84;71.11;95144.66;5127783;27;20205;-84
2023/01/06 05:05:00;;;;;;;1.27;1.00;;;;;;;7.85;71.06;95124.66;5123794;27;20221;-84
2023/01/06 05:07:27;;;;;;;1.67;1.58;;;;;;;7.79;71.46;95131.25;5129853;27;20637;-83
2023/01/06 05:09:53;;;;;;;1.75;1.15;;;;;;;7.80;71.54;95130.16;5124672;27;20292;-82
2023/01/06 05:12:22;;;;;;;1.25;0.93;;;;;;;7.77;71.17;95125.38;5119901;27;20200;-81
2023/01/06 05:14:49;;;;;;;2.78;1.40;;;;;;;7.83;71.53;95132.25;5122505;27;20971;-81
2023/01/06 05:17:15;;;;;;;1.30;0.68;;;;;;;7.88;71.07;95128.69;5132554;27;20204;-79
2023/01/06 05:19:43;;;;;;;1.17;0.88;;;;;;;7.92;71.13;95118.09;5126679;27;20235;-80
2023/01/06 05:22:10;;;;;;;0.80;0.70;;;;;;;7.86;71.35;95120.06;5121814;27;20201;-79
2023/01/06 05:24:37;;;;;;;1.08;0.88;;;;;;;7.93;71.34;95122.38;5123717;27;20193;-79
2023/01/06 05:27:04;;;;;;;0.88;0.88;;;;;;;7.90;71.24;95131.06;5123333;27;20225;-81
2023/01/06 05:29:33;;;;;;;0.73;0.60;;;;;;;7.90;71.22;95136.47;5120813;27;20656;-82
2023/01/06 05:32:00;;;;;;;3.05;1.15;;;;;;;7.84;71.36;95143.84;5125925;27;20728;-83
2023/01/06 05:34:27;;;;;;;0.88;0.77;;;;;;;7.82;71.01;95136.03;5125944;27;20344;-82
2023/01/06 05:36:53;;;;;;;1.33;0.82;;;;;;;7.67;71.50;95122.84;5119702;27;20221;-82
2023/01/06 05:39:20;;;;;;;1.77;1.00;;;;;;;7.72;71.39;95133.53;5120881;27;20267;-82
2023/01/06 05:41:47;;;;;;;0.38;0.38;;;;;;;7.78;71.06;95145.03;5119727;27;20201;-82
2023/01/06 05:44:14;;;;;;;0.98;0.90;;;;;;;7.72;70.88;95141.63;5133334;27;20258;-82
2023/01/06 05:46:42;;;;;;;1.23;1.13;;;;;;;7.75;70.42;95146.44;5119229;27;20193;-84
2023/01/06 05:49:09;;;;;;;0.98;0.70;;;;;;;7.77;70.14;95156.94;5119092;27;20206;-82
2023/01/06 05:51:38;;;;;;;0.68;0.65;;;;;;;7.83;69.55;95153.84;5119417;27;20201;-80
2023/01/06 05:54:08;;;;;;;1.33;1.23;;;;;;;7.81;70.01;95152.53;5118817;27;20194;-80
2023/01/06 05:56:42;;;;;;;1.90;1.10;;;;;;;7.79;69.58;95163.59;5128097;27;20198;-80
2023/01/06 05:59:10;;;;;;;0.65;0.65;;;;;;;7.74;69.78;95161.00;5119471;27;20199;-79
2023/01/06 06:01:37;;;;;;;0.73;0.70;;;;;;;7.80;69.03;95149.03;5124304;27;20208;-80
2023/01/06 06:04:07;;;;;;;0.77;0.55;;;;;;;7.74;69.15;95160.22;5115346;27;20261;-80
2023/01/06 06:06:34;;;;;;;1.23;1.02;;;;;;;7.64;69.22;95155.81;5123207;27;20646;-80
2023/01/06 06:09:01;;;;;;;1.50;0.93;;;;;;;7.61;69.66;95169.88;5129107;27;20197;-78
2023/01/06 06:11:28;;;;;;;1.67;1.02;;;;;;;7.73;68.62;95164.81;5133804;27;20269;-83
2023/01/06 06:13:56;;;;;;;2.05;1.02;;;;;;;7.70;68.54;95170.78;5119215;27;20205;-83
2023/01/06 06:16:28;;;;;;;0.63;0.63;;;;;;;7.70;68.34;95164.59;5133398;27;20236;-80
2023/01/06 06:19:24;;;;;;;0.70;0.70;;;;;;;7.92;67.84;95177.44;5133235;27;20201;-83
2023/01/06 06:21:52;;;;;;;0.90;0.63;;;;;;;8.33;66.36;95177.53;5133268;27;20592;-83
2023/01/06 06:24:19;;;;;;;0.63;0.50;;;;;;;8.59;64.85;95175.91;5124650;27;20209;-81
2023/01/06 06:26:46;;;;;;;4.47;0.85;;;;;;;8.72;64.20;95179.69;5126065;27;20694;-84
2023/01/06 06:29:14;;;;;;;3.17;1.10;;;;;;;8.68;64.00;95192.19;5120581;27;20213;-83
2023/01/06 06:31:41;;;;;;;0.60;0.60;;;;;;;8.64;63.54;95185.78;5118658;27;20259;-81
2023/01/06 06:34:12;;;;;;;2.42;0.82;;;;;;;8.64;63.81;95181.19;5124083;27;20198;-83
2023/01/06 06:36:42;;;;;;;2.63;0.73;;;;;;;8.57;63.97;95171.91;5114490;27;20233;-80
2023/01/06 06:39:09;;;;;;;2.33;1.40;;;;;;;8.37;64.39;95190.09;5132571;27;20326;-80
2023/01/06 06:41:39;;;;;;;1.65;0.90;;;;;;;8.27;65.07;95179.47;5118182;27;20205;-81
2023/01/06 06:44:06;;;;;;;0.63;0.55;;;;;;;8.32;64.98;95175.91;5121517;27;20201;-80
2023/01/06 06:46:33;;;;;;;0.60;0.60;;;;;;;8.27;64.55;95181.38;5125160;27;20209;-78
2023/01/06 06:48:59;;;;;;;1.20;1.00;;;;;;;8.31;64.78;95180.47;5122236;27;20279;-81
2023/01/06 06:51:26;;;;;;;2.03;0.80;;;;;;;8.31;64.58;95180.47;5118563;27;20200;-83
2023/01/06 06:53:55;;;;;;;3.80;1.10;;;;;;;8.41;64.13;95168.72;5119873;27;20209;-83
2023/01/06 06:56:22;;;;;;;2.70;1.13;;;;;;;8.48;64.24;95180.69;5125767;27;20262;-81
2023/01/06 06:58:49;;;;;;;2.38;1.30;;;;;;;8.49;64.30;95187.69;5119829;27;20210;-83
2023/01/06 07:01:17;;;;;;;0.57;0.57;;;;;;;8.60;63.83;95187.50;5116488;27;20803;-77
2023/01/06 07:03:44;;;;;;;1.10;0.93;;;;;;;8.61;64.14;95194.50;5131782;27;20234;-80
2023/01/06 07:06:14;;;;;;;0.82;0.70;;;;;;;8.67;63.70;95187.91;5117897;27;20228;-81
2023/01/06 07:08:43;;;;;;;1.45;0.63;;;;;;;8.74;63.85;95205.31;5120183;27;20626;-81
2023/01/06 07:11:11;;;;;;;5.63;0.70;;;;;;;8.81;64.04;95197.59;5124908;27;20274;-82
2023/01/06 07:13:38;;;;;;;0.60;0.60;;;;;;;8.88;63.71;95194.50;5125558;27;20606;-80
2023/01/06 07:16:05;;;;;;;2.05;1.27;;;;;;;8.85;63.18;95195.09;5118970;27;20922;-78
2023/01/06 07:18:32;;;;;;;0.50;0.50;;;;;;;8.86;62.87;95196.69;5118049;27;20284;-81
2023/01/06 07:20:59;;;;;;;1.95;1.23;;;;;;;8.91;63.09;95207.38;5123643;27;20250;-82
2023/01/06 07:23:26;;;;;;;2.30;0.90;;;;;;;8.89;63.43;95206.88;5124202;27;20200;-83
2023/01/06 07:25:54;;;;;;;0.73;0.55;;;;;;;8.93;63.09;95205.16;5119117;27;20220;-78
2023/01/06 07:28:22;;;;;;;0.70;0.70;;;;;;;8.87;63.01;95203.69;5117792;27;20222;-78
2023/01/06 07:30:49;;;;;;;0.40;0.40;;;;;;;8.90;63.04;95214.69;5122643;27;20254;-82
2023/01/06 07:33:16;;;;;;;1.70;0.88;;;;;;;8.96;62.90;95207.28;5112601;27;20201;-78
2023/01/06 07:35:43;;;;;;;1.77;0.80;;;;;;;9.01;62.74;95217.97;5122252;27;20205;-83
2023/01/06 07:38:10;;;;;;;2.40;1.00;;;;;;;9.02;62.34;95222.25;5124378;27;20779;-79
2023/01/06 07:40:37;;;;;;;0.70;0.70;;;;;;;8.98;62.83;95223.19;5120311;27;20203;-79
2023/01/06 07:43:05;;;;;;;0.57;0.57;;;;;;;8.96;62.96;95207.28;5117207;27;20206;-79
2023/01/06 07:45:33;;;;;;;0.75;0.70;;;;;;;9.05;62.95;95235.16;5122157;27;20298;-81
2023/01/06 07:48:00;;;;;;;2.08;1.00;;;;;;;9.12;62.76;95232.88;5126927;27;20699;-83
2023/01/06 07:50:28;;;;;;;2.33;0.90;;;;;;;9.09;62.83;95228.06;5131338;27;20216;-80
2023/01/06 07:52:57;;;;;;;1.40;0.57;;;;;;;9.11;62.46;95236.69;5130830;27;20204;-77
2023/01/06 07:55:24;;;;;;;4.03;2.55;;;;;;;9.07;62.45;95241.09;5131088;27;20208;-80
2023/01/06 07:57:51;;;;;;;1.77;1.17;;;;;;;9.05;62.58;95243.28;5121192;27;20305;-81
2023/01/06 08:00:18;;;;;;;1.50;0.88;;;;;;;9.07;62.39;95251.88;5122686;27;20201;-80
2023/01/06 08:02:46;;;;;;;0.95;0.77;;;;;;;9.13;62.90;95242.59;5111281;28;20190;-80
2023/01/06 08:05:13;;;;;;;2.95;1.00;;;;;;;9.27;62.79;95259.56;5116325;27;20235;-83
2023/01/06 08:07:40;;;;;;;0.70;0.70;;;;;;;9.30;62.31;95260.06;5124442;27;20233;-83
2023/01/06 08:10:07;;;;;;;0.70;0.65;;;;;;;9.30;62.49;95262.75;5120100;27;20251;-80
2023/01/06 08:12:34;;;;;;;0.98;0.70;;;;;;;9.41;62.25;95256.03;5120115;27;20198;-83
2023/01/06 08:15:01;;;;;;;1.48;0.82;;;;;;;9.46;61.85;95261.31;5120373;27;20243;-80
2023/01/06 08:17:29;;;;;;;0.65;0.60;;;;;;;9.45;61.50;95267.84;5122417;28;20202;-81
2023/01/06 08:19:57;;;;;;;3.45;1.90;;;;;;;9.51;61.26;95272.03;5122445;28;20201;-81
2023/01/06 08:22:25;;;;;;;3.25;0.60;;;;;;;9.62;61.45;95276.91;5119243;28;20200;-80
2023/01/06 08:24:52;;;;;;;1.65;1.02;;;;;;;9.74;60.85;95281.78;5119668;28;20197;-82
2023/01/06 08:27:19;;;;;;;1.58;1.00;;;;;;;9.93;59.87;95279.72;5121016;28;20266;-83
2023/01/06 08:29:46;;;;;;;1.77;0.80;;;;;;;10.11;59.88;95279.84;5119033;28;20277;-81
2023/01/06 08:32:13;;;;;;;1.75;0.82;;;;;;;10.15;59.67;95275.38;5120800;28;20648;-81
2023/01/06 08:34:40;;;;;;;4.30;1.88;;;;;;;10.31;59.29;95273.94;5115807;28;20194;-79
2023/01/06 08:37:08;;;;;;;2.95;1.25;;;;;;;10.40;59.08;95282.09;5130678;28;20296;-80
2023/01/06 08:39:35;;;;;;;2.10;1.40;;;;;;;10.54;58.48;95272.78;5117256;28;20725;-80
2023/01/06 08:42:02;;;;;;;5.03;2.45;;;;;;;10.81;60.38;95276.41;5123084;28;20682;-85
2023/01/06 08:44:29;;;;;;;2.03;1.25;;;;;;;11.16;61.21;95261.88;5112097;28;20235;-84
2023/01/06 08:46:55;;;;;;;2.20;1.20;;;;;;;11.12;58.64;95271.75;5122933;28;20201;-81
2023/01/06 08:49:22;;;;;;;2.60;0.90;;;;;;;10.55;58.76;95268.16;5125354;28;20704;-81
2023/01/06 08:51:49;;;;;;;2.33;1.25;;;;;;;10.47;58.20;95277.84;5130488;28;20667;-81
2023/01/06 08:54:17;;;;;;;1.42;0.90;;;;;;;10.45;57.87;95269.25;5115962;28;20198;-79
2023/01/06 08:56:44;;;;;;;2.05;1.27;;;;;;;10.61;57.26;95256.91;5130029;28;20844;-81
2023/01/06 08:59:13;;;;;;;0.70;0.38;;;;;;;10.42;58.83;95264.44;5128300;28;20324;-82
2023/01/06 09:01:40;;;;;;;0.63;0.40;;;;;;;10.17;58.26;95251.53;5119137;28;20246;-80
2023/01/06 09:04:09;;;;;;;3.03;0.88;;;;;;;10.19;58.30;95249.34;5126990;27;20704;-81
2023/01/06 09:06:37;;;;;;;1.85;0.65;;;;;;;10.10;58.84;95243.06;5120578;28;20201;-80
2023/01/06 09:09:06;;;;;;;1.25;0.95;;;;;;;10.29;58.78;95232.81;5116797;28;20232;-81
2023/01/06 09:11:35;;;;;;;1.98;0.70;;;;;;;10.13;58.16;95240.50;5120304;28;20209;-81
2023/01/06 09:14:01;;;;;;;0.85;0.85;;;;;;;10.38;58.20;95235.59;5124223;28;20197;-80
2023/01/06 09:16:29;;;;;;;1.10;0.98;;;;;;;10.56;56.99;95246.19;5121626;28;20233;-82
2023/01/06 09:18:56;;;;;;;0.65;0.45;;;;;;;10.23;57.06;95228.66;5116377;28;20246;-81
2023/01/06 09:21:25;;;;;;;3.85;0.63;;;;;;;10.01;57.84;95248.38;5109030;28;20289;-80
2023/01/06 09:23:52;;;;;;;0.40;0.40;;;;;;;10.22;58.01;95248.72;5124904;27;20242;-81
2023/01/06 09:26:20;;;;;;;0.63;0.52;;;;;;;10.25;57.78;95221.81;5125227;27;20208;-82
2023/01/06 09:28:48;;;;;;;1.13;0.85;;;;;;;10.28;57.92;95247.47;5120094;27;20229;-80
2023/01/06 09:31:16;;;;;;;1.48;1.05;;;;;;;10.11;58.12;95231.91;5121907;27;20213;-77
2023/01/06 09:33:43;;;;;;;0.70;0.70;;;;;;;10.36;57.91;95227.78;5127223;27;20209;-79
2023/01/06 09:36:10;;;;;;;0.70;0.60;;;;;;;10.36;57.57;95233.19;5126052;27;20233;-83
2023/01/06 09:38:37;;;;;;;0.77;0.73;;;;;;;10.56;57.14;95218.28;5113860;27;20206;-79
2023/01/06 09:41:26;;;;;;;1.02;0.93;;;;;;;10.29;57.27;95222.00;5112943;28;20206;-81
2023/01/06 09:44:01;;;;;;;1.60;1.10;;;;;;;10.51;56.46;95210.31;5122197;27;20201;-81
2023/01/06 09:46:34;;;;;;;0.50;0.50;;;;;;;10.42;56.62;95207.56;5120207;27;20196;-83
2023/01/06 09:49:07;;;;;;;2.03;1.33;;;;;;;10.31;57.69;95198.13;5134157;27;20359;-83
2023/01/06 09:51:36;;;;;;;0.40;0.40;;;;;;;10.50;56.97;95190.56;5133599;27;20199;-79
2023/01/06 09:54:14;;;;;;;0.88;0.70;;;;;;;10.35;58.31;95193.69;5119925;27;20204;-81
2023/01/06 09:56:43;;;;;;;0.77;0.60;;;;;;;10.30;56.97;95180.25;5117838;27;20185;-81
2023/01/06 09:59:19;;;;;;;0.65;0.50;;;;;;;10.25;57.14;95192.03;5114604;27;20549;-80
2023/01/06 10:01:50;;;;;;;0.50;0.50;;;;;;;10.13;57.85;95185.56;5123604;27;20189;-82
2023/01/06 10:04:19;;;;;;;3.20;0.88;;;;;;;10.31;57.10;95181.88;5126571;27;20228;-81
2023/01/06 10:06:53;;;;;;;0.52;0.43;;;;;;;10.31;56.65;95177.25;5123351;27;20720;-79
2023/01/06 10:09:27;;;;;;;0.57;0.52;;;;;;;10.23;57.19;95169.09;5119092;27;20266;-80
2023/01/06 10:12:01;;;;;;;3.03;0.82;;;;;;;10.43;56.51;95183.97;5119787;27;20532;-83
2023/01/06 10:14:40;;;;;;;0.55;0.45;;;;;;;10.70;55.57;95178.34;5120531;27;20201;-79
2023/01/06 10:17:28;;;;;;;2.22;0.57;;;;;;;10.47;55.72;95185.75;5116702;27;20204;-81
2023/01/06 10:20:04;;;;;;;5.38;0.88;;;;;;;10.25;55.79;95188.53;5125004;27;20711;-82
2023/01/06 10:22:43;;;;;;;0.55;0.55;;;;;;;10.17;55.50;95186.53;5119915;27;20192;-78
2023/01/06 10:25:17;;;;;;;7.22;0.77;;;;;;;10.20;56.01;95185.97;5119254;27;20259;-80
2023/01/06 10:27:50;;;;;;;4.53;0.70;;;;;;;10.43;55.54;95176.66;5123405;27;20184;-81
2023/01/06 10:30:22;;;;;;;0.70;0.50;;;;;;;10.43;55.36;95179.38;5125971;27;20258;-81
2023/01/06 10:32:50;;;;;;;5.35;1.00;;;;;;;10.20;55.89;95169.72;5123671;27;20189;-80
2023/01/06 10:35:21;;;;;;;1.08;0.52;;;;;;;10.15;56.34;95162.47;5118302;27;20223;-79
2023/01/06 10:37:51;;;;;;;1.20;0.82;;;;;;;10.07;56.09;95165.97;5132600;27;20246;-80
2023/01/06 10:40:21;;;;;;;0.75;0.63;;;;;;;10.34;55.96;95170.41;5112294;27;20226;-83
2023/01/06 10:42:57;;;;;;;3.03;0.50;;;;;;;10.40;55.54;95163.72;5125398;27;20201;-81
2023/01/06 10:45:30;;;;;;;6.00;0.65;;;;;;;10.42;55.75;95149.88;5120866;27;20184;-79
2023/01/06 10:47:57;;;;;;;1.00;0.43;;;;;;;10.47;56.06;95150.56;5118445;27;20189;-79
2023/01/06 10:50:25;;;;;;;1.92;1.25;;;;;;;10.55;55.87;95155.19;5132999;27;20209;-81
2023/01/06 10:52:52;;;;;;;0.80;0.60;;;;;;;10.79;55.56;95148.56;5128458;27;20202;-77
2023/01/06 10:55:37;;;;;;;1.00;0.65;;;;;;;10.95;54.69;95141.56;5122661;27;20209;-81
2023/01/06 10:58:15;;;;;;;0.90;0.70;;;;;;;10.96;54.93;95148.59;5126247;27;20597;-82
2023/01/06 11:00:56;;;;;;;2.20;0.85;;;;;;;11.14;54.44;95127.72;5118308;27;20185;-80
2023/01/06 11:03:23;;;;;;;1.52;1.00;;;;;;;10.99;53.96;95121.66;5121865;27;20197;-81
2023/01/06 11:06:02;;;;;;;1.67;0.55;;;;;;;10.69;55.29;95112.50;5125652;27;20198;-79
2023/01/06 11:08:30;;;;;;;1.45;0.70;;;;;;;10.96;55.15;95116.06;5123475;27;20219;-79
2023/01/06 11:10:57;;;;;;;0.40;0.40;;;;;;;10.74;54.84;95117.00;5118551;27;20207;-77
2023/01/06 11:13:27;;;;;;;1.80;0.93;;;;;;;10.81;54.85;95102.97;5119447;27;20675;-81
2023/01/06 11:15:56;;;;;;;3.97;1.17;;;;;;;11.16;54.80;95115.44;5117674;27;20261;-81
2023/01/06 11:18:26;;;;;;;1.83;1.08;;;;;;;11.30;54.78;95121.50;5118993;27;20625;-81
2023/01/06 11:21:11;;;;;;;5.85;1.42;;;;;;;11.22;54.44;95119.56;5118997;27;20262;-81
2023/01/06 11:23:39;;;;;;;5.40;1.10;;;;;;;11.32;54.42;95119.28;5129110;27;20208;-82
2023/01/06 11:26:13;;;;;;;0.40;0.40;;;;;;;11.06;54.47;95126.63;5121234;27;20205;-80
2023/01/06 11:28:41;;;;;;;5.25;1.05;;;;;;;10.81;54.99;95121.94;5117325;27;20212;-78
2023/01/06 11:31:11;;;;;;;1.33;1.05;;;;;;;11.04;54.88;95118.00;5131918;27;20197;-84
2023/01/06 11:33:46;;;;;;;2.00;1.10;;;;;;;11.12;54.88;95114.47;5117794;27;20252;-81
2023/01/06 11:36:16;;;;;;;1.73;1.00;;;;;;;11.10;55.75;95122.13;5119357;27;20221;-82
2023/01/06 11:38:46;;;;;;;1.65;1.20;;;;;;;10.90;54.48;95117.34;5124979;27;20225;-78
2023/01/06 11:41:20;;;;;;;0.73;0.70;;;;;;;10.85;54.40;95120.19;5124975;27;20204;-82
2023/01/06 11:43:47;;;;;;;3.15;0.70;;;;;;;10.67;55.31;95125.56;5119571;27;20276;-77
2023/01/06 11:46:15;;;;;;;1.83;0.98;;;;;;;10.77;54.93;95137.25;5117528;27;20202;-82
2023/01/06 11:48:46;;;;;;;0.50;0.50;;;;;;;10.88;55.17;95130.41;5123022;27;20236;-80
2023/01/06 11:51:13;;;;;;;1.08;0.90;;;;;;;10.76;55.32;95116.69;5128096;27;20201;-78
2023/01/06 11:53:54;;;;;;;1.33;0.63;;;;;;;10.67;54.72;95122.06;5120889;27;20209;-80
2023/01/06 11:56:21;;;;;;;0.50;0.50;;;;;;;10.59;56.26;95129.06;5124783;27;20217;-79
2023/01/06 11:58:57;;;;;;;1.15;0.50;;;;;;;10.71;55.83;95124.94;5118148;27;20265;-79